Time;durP1;ratioP1;P1;durP2;ratioP2;P2;SDS_P1;SDS_P2;PMS_P1;PMS_P2;Temp;Humidity;BMP_temperature;BMP_pressure;BME280_temperature;BME280_humidity;BME280_pressure;Samples;Min_cycle;Max_cycle;Signal;HPM_P1;HPM_P2
2022/01/19 00:00:49;;;;;;;7.10;5.47;;;5.30;83.30;;;;;;5034220;28;20459;-56
2022/01/19 00:03:16;;;;;;;15.43;7.90;;;5.30;23.30;;;;;;5025451;28;20510;-55
2022/01/19 00:05:44;;;;;;;21.37;6.83;;;5.20;84.40;;;;;;5029341;28;20495;-55
2022/01/19 00:08:17;;;;;;;11.33;6.43;;;5.20;92.90;;;;;;5033389;28;20494;-55
2022/01/19 00:10:43;;;;;;;8.47;5.43;;;5.20;90.20;;;;;;5033948;28;20512;-54
2022/01/19 00:13:10;;;;;;;8.43;5.60;;;5.10;23.80;;;;;;5028743;28;20477;-55
2022/01/19 00:15:37;;;;;;;12.00;6.00;;;5.10;24.10;;;;;;5029717;28;20508;-56
2022/01/19 00:18:04;;;;;;;11.33;5.47;;;5.10;96.70;;;;;;5033988;28;20521;-55
2022/01/19 00:20:31;;;;;;;11.87;6.53;;;5.20;80.20;;;;;;5031519;28;20494;-54
2022/01/19 00:22:59;;;;;;;12.63;5.97;;;5.20;88.30;;;;;;5027863;28;20507;-55
2022/01/19 00:25:27;;;;;;;19.07;6.50;;;5.20;22.90;;;;;;5033209;28;20477;-56
2022/01/19 00:27:53;;;;;;;12.07;5.20;;;5.20;20.10;;;;;;5032493;28;20533;-55
2022/01/19 00:30:20;;;;;;;12.90;5.70;;;5.20;92.90;;;;;;5033898;28;20502;-55
2022/01/19 00:32:47;;;;;;;10.93;6.30;;;5.10;87.90;;;;;;5030735;28;21034;-55
2022/01/19 00:35:14;;;;;;;10.23;5.93;;;5.10;20.40;;;;;;5032922;28;20467;-56
2022/01/19 00:37:43;;;;;;;11.00;6.03;;;5.20;20.10;;;;;;5030413;28;20506;-55
2022/01/19 00:40:12;;;;;;;12.00;6.20;;;5.10;99.90;;;;;;5031500;28;20518;-54
2022/01/19 00:42:41;;;;;;;10.97;6.77;;;5.10;92.00;;;;;;5028244;28;20560;-55
2022/01/19 00:45:09;;;;;;;13.50;5.57;;;5.10;76.30;;;;;;5027410;28;20509;-55
2022/01/19 00:47:35;;;;;;;8.60;6.37;;;5.10;74.30;;;;;;5031261;28;20490;-55
2022/01/19 00:50:03;;;;;;;15.07;6.27;;;5.10;78.70;;;;;;5028662;28;20481;-58
2022/01/19 00:52:30;;;;;;;12.30;6.80;;;5.10;75.80;;;;;;5029831;28;20532;-55
2022/01/19 00:54:56;;;;;;;9.23;5.33;;;5.10;99.90;;;;;;5030642;28;20872;-55
2022/01/19 00:57:23;;;;;;;14.83;6.10;;;5.10;99.90;;;;;;5032248;28;20462;-55
2022/01/19 00:59:52;;;;;;;10.00;5.90;;;5.10;99.90;;;;;;5023871;28;20456;-56
2022/01/19 01:02:19;;;;;;;12.13;6.03;;;5.10;97.40;;;;;;5030875;28;20966;-55
2022/01/19 01:04:45;;;;;;;9.07;5.63;;;5.10;96.60;;;;;;5029636;28;20540;-55
2022/01/19 01:07:12;;;;;;;9.77;5.60;;;5.00;99.90;;;;;;5030217;28;20463;-55
2022/01/19 01:09:39;;;;;;;14.03;6.50;;;5.00;89.10;;;;;;5031675;28;20486;-55
2022/01/19 01:12:11;;;;;;;13.67;5.80;;;5.00;99.90;;;;;;5027775;28;20537;-55
2022/01/19 01:20:17;;;;;;;13.73;5.70;;;5.00;99.90;;;;;;5015092;28;20940;-56
2022/01/19 01:22:44;;;;;;;7.47;6.53;;;5.00;99.50;;;;;;5030434;28;20482;-56
2022/01/19 01:25:10;;;;;;;14.83;6.63;;;5.00;91.90;;;;;;5030099;28;22579;-55
2022/01/19 01:27:37;;;;;;;9.80;5.97;;;5.00;80.40;;;;;;5030109;28;20498;-55
2022/01/19 01:30:05;;;;;;;11.50;6.10;;;5.00;87.40;;;;;;5031528;28;20893;-55
2022/01/19 01:32:33;;;;;;;10.93;6.00;;;5.00;87.50;;;;;;5030537;28;20497;-55
2022/01/19 01:35:00;;;;;;;12.13;6.90;;;5.00;20.80;;;;;;5029903;28;20458;-54
2022/01/19 01:37:26;;;;;;;15.03;7.47;;;5.00;83.90;;;;;;5031741;28;20486;-56
2022/01/19 01:39:53;;;;;;;11.67;6.57;;;5.00;20.50;;;;;;5030760;28;20490;-55
2022/01/19 01:42:21;;;;;;;13.00;6.67;;;5.00;81.80;;;;;;5028815;28;20573;-55
2022/01/19 01:44:51;;;;;;;13.80;7.73;;;5.00;97.80;;;;;;5031267;28;20462;-55
2022/01/19 01:47:19;;;;;;;10.37;6.20;;;5.00;99.90;;;;;;5029327;28;20525;-57
2022/01/19 01:53:26;;;;;;;12.23;7.10;;;4.90;99.90;;;;;;5031039;28;20897;-55
2022/01/19 01:55:21;;;;;;;12.43;7.23;;;4.90;99.90;;;;;;5032663;28;20457;-55
2022/01/19 01:57:48;;;;;;;16.20;6.67;;;4.90;99.90;;;;;;5030850;28;20525;-55
2022/01/19 02:00:18;;;;;;;17.10;8.30;;;5.00;99.90;;;;;;5029335;28;20530;-56
2022/01/19 02:02:47;;;;;;;16.30;8.97;;;4.90;99.90;;;;;;5028498;28;20545;-56
2022/01/19 02:05:15;;;;;;;11.10;6.87;;;4.90;99.90;;;;;;5019393;28;20463;-55
2022/01/19 02:07:47;;;;;;;17.73;9.20;;;4.90;99.90;;;;;;5024094;28;20530;-55
2022/01/19 02:10:30;;;;;;;14.10;8.27;;;4.90;99.90;;;;;;5030053;28;20976;-55
2022/01/19 02:15:57;;;;;;;13.23;8.33;;;4.90;99.90;;;;;;5031002;28;20520;-55
2022/01/19 02:23:56;;;;;;;14.23;8.60;;;5.00;99.90;;;;;;5028812;28;20843;-55
2022/01/19 02:26:28;;;;;;;14.90;9.10;;;5.00;99.90;;;;;;5032360;28;20463;-55
2022/01/19 02:29:03;;;;;;;22.10;9.27;;;5.00;99.90;;;;;;5019713;28;20483;-54
2022/01/19 02:31:54;;;;;;;15.20;8.70;;;5.00;99.90;;;;;;5027976;28;20505;-56
2022/01/19 02:40:15;;;;;;;20.20;8.30;;;5.00;99.90;;;;;;5027252;28;20450;-57
2022/01/19 02:42:54;;;;;;;15.10;8.83;;;5.00;99.90;;;;;;5030647;28;20573;-56
2022/01/19 02:50:50;;;;;;;17.20;8.77;;;5.00;99.90;;;;;;5031061;28;20465;-54
2022/01/19 02:53:18;;;;;;;16.93;7.47;;;5.00;99.90;;;;;;5030855;28;20542;-55
2022/01/19 02:55:45;;;;;;;14.47;7.90;;;5.00;99.90;;;;;;5028625;28;20460;-56
2022/01/19 02:58:14;;;;;;;20.70;8.67;;;5.00;99.90;;;;;;5023212;28;20574;-55
2022/01/19 03:09:00;;;;;;;13.40;8.47;;;5.00;99.90;;;;;;5022491;28;21055;-55
2022/01/19 03:11:26;;;;;;;19.00;9.40;;;5.00;99.90;;;;;;5031532;28;20534;-55
2022/01/19 03:13:53;;;;;;;16.23;7.57;;;5.10;99.90;;;;;;5027260;28;20570;-56
2022/01/19 03:16:20;;;;;;;21.10;8.40;;;5.00;99.90;;;;;;5030330;28;20558;-56
2022/01/19 03:18:47;;;;;;;17.57;8.00;;;5.10;85.30;;;;;;5025165;28;21000;-55
2022/01/19 03:21:15;;;;;;;12.00;7.70;;;5.10;76.70;;;;;;5027546;28;20956;-55
2022/01/19 03:23:41;;;;;;;11.73;7.67;;;5.00;99.90;;;;;;5028515;28;20489;-55
2022/01/19 03:26:09;;;;;;;15.87;8.13;;;5.00;80.50;;;;;;5030312;28;20497;-55
2022/01/19 03:28:36;;;;;;;16.67;7.63;;;5.00;99.90;;;;;;5029669;28;20565;-56
2022/01/19 03:31:05;;;;;;;13.70;8.60;;;5.00;96.50;;;;;;5029945;28;20537;-56
2022/01/19 03:33:32;;;;;;;16.40;7.80;;;5.00;99.90;;;;;;5028623;28;20537;-56
2022/01/19 03:35:59;;;;;;;15.27;7.30;;;5.00;99.90;;;;;;5029307;28;20512;-55
2022/01/19 03:38:25;;;;;;;21.00;8.57;;;5.00;90.40;;;;;;5028217;28;20573;-55
2022/01/19 03:40:52;;;;;;;12.60;7.17;;;5.00;20.50;;;;;;5016963;28;20538;-56
2022/01/19 03:43:20;;;;;;;15.37;7.90;;;4.90;84.00;;;;;;5027503;28;20562;-55
2022/01/19 03:45:52;;;;;;;15.67;8.40;;;4.90;91.90;;;;;;5026047;28;20493;-55
2022/01/19 03:48:34;;;;;;;17.00;8.87;;;4.90;74.80;;;;;;5030025;28;20490;-55
2022/01/19 03:51:00;;;;;;;15.80;7.73;;;4.90;99.90;;;;;;5027397;28;20513;-55
2022/01/19 03:53:27;;;;;;;17.93;8.10;;;4.90;99.90;;;;;;5027704;28;20537;-55
2022/01/19 03:55:55;;;;;;;15.50;7.23;;;4.90;99.90;;;;;;5029118;28;20463;-55
2022/01/19 03:58:23;;;;;;;19.47;8.40;;;5.00;99.90;;;;;;5028797;28;20568;-55
2022/01/19 04:00:54;;;;;;;17.80;7.90;;;4.90;99.90;;;;;;5028862;28;20991;-55
2022/01/19 04:03:26;;;;;;;16.60;7.50;;;4.90;99.90;;;;;;5028871;28;20514;-55
2022/01/19 04:05:59;;;;;;;14.60;7.13;;;5.00;99.90;;;;;;5030291;28;20463;-55
2022/01/19 04:08:26;;;;;;;14.07;7.80;;;4.90;99.90;;;;;;5030468;28;20493;-55
2022/01/19 04:10:53;;;;;;;18.27;7.77;;;4.90;99.90;;;;;;5033939;28;20458;-54
2022/01/19 04:13:30;;;;;;;13.67;7.63;;;4.90;99.90;;;;;;5028212;28;20542;-55
2022/01/19 04:15:58;;;;;;;17.40;8.23;;;4.90;99.90;;;;;;5029812;28;20458;-55
2022/01/19 04:18:25;;;;;;;14.07;7.13;;;4.80;99.90;;;;;;5033358;28;20491;-55
2022/01/19 04:20:52;;;;;;;14.13;8.23;;;4.80;99.90;;;;;;5030242;28;20462;-55
2022/01/19 04:23:21;;;;;;;15.57;8.23;;;4.80;99.90;;;;;;5030949;28;20486;-55
2022/01/19 04:25:48;;;;;;;14.50;8.50;;;4.80;99.90;;;;;;5029487;28;20466;-56
2022/01/19 04:28:15;;;;;;;17.97;7.20;;;4.80;99.90;;;;;;5030824;28;20518;-55
2022/01/19 04:30:42;;;;;;;14.53;8.10;;;4.80;99.90;;;;;;5028923;28;21310;-55
2022/01/19 04:33:13;;;;;;;17.53;8.50;;;4.80;99.90;;;;;;5030025;28;20463;-55
2022/01/19 04:35:46;;;;;;;18.50;7.93;;;4.80;99.90;;;;;;5035557;28;20462;-55
2022/01/19 04:39:06;;;;;;;17.60;7.73;;;4.90;99.90;;;;;;5026004;28;20479;-54
2022/01/19 04:47:37;;;;;;;14.33;7.37;;;4.80;99.90;;;;;;5029088;28;20486;-56
2022/01/19 05:03:51;;;;;;;15.10;7.10;;;4.70;99.90;;;;;;5033129;28;20856;-51
2022/01/19 05:06:20;;;;;;;9.73;7.00;;;4.70;99.90;;;;;;5036584;28;20908;-51
2022/01/19 05:09:05;;;;;;;16.47;8.10;;;4.70;99.90;;;;;;5037545;28;20569;-50
2022/01/19 05:14:16;;;;;;;14.03;7.90;;;4.60;99.90;;;;;;5034974;28;20511;-52
2022/01/19 05:16:43;;;;;;;13.30;7.13;;;4.60;99.90;;;;;;5034886;28;20549;-51
2022/01/19 05:19:09;;;;;;;19.43;7.70;;;4.70;99.90;;;;;;5033555;28;21195;-52
2022/01/19 05:21:37;;;;;;;21.83;8.70;;;4.70;99.90;;;;;;5036163;28;20467;-51
2022/01/19 05:24:07;;;;;;;12.70;7.03;;;4.70;99.90;;;;;;5030603;28;20611;-51
2022/01/19 05:26:36;;;;;;;19.00;8.83;;;4.70;99.90;;;;;;5029481;28;20979;-51
2022/01/19 05:29:03;;;;;;;9.33;7.70;;;4.60;99.90;;;;;;5031940;28;20482;-51
2022/01/19 05:31:29;;;;;;;18.33;8.17;;;4.60;99.90;;;;;;5033344;28;20529;-51
2022/01/19 05:33:56;;;;;;;19.63;8.70;;;4.70;99.90;;;;;;5039534;28;20538;-52
2022/01/19 05:36:23;;;;;;;16.77;7.47;;;4.60;99.90;;;;;;5034990;28;20741;-52
2022/01/19 05:38:50;;;;;;;19.57;8.90;;;4.60;99.90;;;;;;5032976;28;20554;-52
2022/01/19 05:41:17;;;;;;;18.53;9.70;;;4.60;99.90;;;;;;5032089;28;20552;-51
2022/01/19 05:43:44;;;;;;;20.20;9.20;;;4.60;99.90;;;;;;5031284;28;20860;-50
2022/01/19 05:46:10;;;;;;;16.60;9.33;;;4.50;99.90;;;;;;5030863;28;21050;-51
2022/01/19 05:48:37;;;;;;;15.60;10.30;;;4.50;99.90;;;;;;5033043;28;21098;-52
2022/01/19 05:51:03;;;;;;;16.23;9.73;;;4.50;99.90;;;;;;5035081;28;20553;-52
2022/01/19 05:53:30;;;;;;;20.60;9.77;;;4.50;99.90;;;;;;5030536;28;20452;-52
2022/01/19 05:55:58;;;;;;;12.27;9.23;;;4.50;99.90;;;;;;5036424;28;20574;-51
2022/01/19 05:58:24;;;;;;;13.93;9.77;;;4.50;99.90;;;;;;5034174;28;20576;-51
2022/01/19 06:00:51;;;;;;;19.47;11.27;;;4.60;99.90;;;;;;5023852;28;20567;-52
2022/01/19 06:03:18;;;;;;;14.77;9.80;;;4.60;99.90;;;;;;5035827;28;20569;-52
2022/01/19 06:05:45;;;;;;;22.43;10.97;;;4.50;99.90;;;;;;5030431;28;20466;-52
2022/01/19 06:08:28;;;;;;;18.23;10.50;;;4.50;99.90;;;;;;5029789;28;20569;-52
2022/01/19 06:10:55;;;;;;;22.17;10.80;;;4.50;99.90;;;;;;5040286;28;20463;-52
2022/01/19 06:13:25;;;;;;;21.00;10.63;;;4.50;99.90;;;;;;5030181;28;21016;-52
2022/01/19 06:15:53;;;;;;;16.67;11.00;;;4.50;99.90;;;;;;5027304;28;20546;-52
2022/01/19 06:18:20;;;;;;;20.93;10.70;;;4.40;99.90;;;;;;5034453;28;20486;-51
2022/01/19 06:20:47;;;;;;;17.37;11.37;;;4.50;99.90;;;;;;5031498;28;20538;-52
2022/01/19 06:23:14;;;;;;;19.63;10.40;;;4.50;99.90;;;;;;5029299;28;20486;-52
2022/01/19 06:25:40;;;;;;;19.00;10.77;;;4.60;99.90;;;;;;5032182;28;21015;-52
2022/01/19 06:28:07;;;;;;;17.60;11.03;;;4.70;99.90;;;;;;5032091;28;20958;-51
2022/01/19 06:30:35;;;;;;;24.03;11.67;;;4.70;99.90;;;;;;5029592;28;20578;-51
2022/01/19 06:33:02;;;;;;;19.00;11.37;;;4.70;99.90;;;;;;5027689;28;20521;-51
2022/01/19 06:35:29;;;;;;;17.10;11.20;;;4.60;99.90;;;;;;5030255;28;20541;-52
2022/01/19 06:37:56;;;;;;;19.77;11.73;;;4.50;99.90;;;;;;5028606;28;20575;-51
2022/01/19 06:40:25;;;;;;;26.47;12.10;;;4.50;99.90;;;;;;5030367;28;20543;-51
2022/01/19 06:42:53;;;;;;;14.93;10.77;;;4.50;99.90;;;;;;5025132;28;20960;-51
2022/01/19 06:45:19;;;;;;;18.23;10.90;;;4.40;99.90;;;;;;5030355;28;21070;-51
2022/01/19 06:47:47;;;;;;;18.47;11.30;;;4.40;99.90;;;;;;5031609;28;20538;-50
2022/01/19 06:50:15;;;;;;;20.13;11.73;;;4.30;99.90;;;;;;5016869;28;20558;-52
2022/01/19 06:52:41;;;;;;;19.00;11.20;;;4.40;99.90;;;;;;5030699;28;20831;-51
2022/01/19 06:55:08;;;;;;;21.47;10.90;;;4.40;99.90;;;;;;5031413;28;20549;-52
2022/01/19 06:57:35;;;;;;;18.17;11.23;;;4.30;99.90;;;;;;5028712;28;20517;-52
2022/01/19 07:00:01;;;;;;;14.53;10.80;;;4.30;99.90;;;;;;5029381;28;20490;-51
2022/01/19 07:02:29;;;;;;;15.43;10.30;;;4.30;99.90;;;;;;5029784;28;20502;-51
2022/01/19 07:04:56;;;;;;;16.23;11.10;;;4.30;99.90;;;;;;5032677;28;20517;-51
2022/01/19 07:07:24;;;;;;;21.30;11.33;;;4.20;99.90;;;;;;5031760;28;20497;-51
2022/01/19 07:09:50;;;;;;;19.80;11.03;;;4.20;99.90;;;;;;5027512;28;20487;-51
2022/01/19 07:12:17;;;;;;;17.70;10.83;;;4.20;99.90;;;;;;5030419;28;20466;-51
2022/01/19 07:14:44;;;;;;;21.57;11.33;;;4.20;99.90;;;;;;5031541;28;20522;-51
2022/01/19 07:17:10;;;;;;;21.10;10.77;;;4.20;99.90;;;;;;5029559;28;20975;-51
2022/01/19 07:19:37;;;;;;;20.63;11.30;;;4.30;99.90;;;;;;5031625;28;20565;-51
2022/01/19 07:22:05;;;;;;;16.33;10.40;;;4.20;99.90;;;;;;5029520;28;20509;-51
2022/01/19 07:24:32;;;;;;;13.40;9.67;;;4.30;99.90;;;;;;5030942;28;20513;-52
2022/01/19 07:26:59;;;;;;;17.13;10.87;;;4.20;99.90;;;;;;5029403;28;20463;-52
2022/01/19 07:29:25;;;;;;;23.53;10.70;;;4.20;99.90;;;;;;5024624;28;20573;-51
2022/01/19 07:31:55;;;;;;;12.17;9.40;;;4.20;99.90;;;;;;5026089;28;20545;-51
2022/01/19 07:34:21;;;;;;;18.43;11.00;;;4.20;99.90;;;;;;5023978;28;20459;-51
2022/01/19 07:36:48;;;;;;;18.63;10.80;;;4.20;99.90;;;;;;5028858;28;20542;-50
2022/01/19 07:39:16;;;;;;;21.93;11.07;;;4.30;99.90;;;;;;5030968;28;20525;-50
2022/01/19 07:41:42;;;;;;;24.40;10.70;;;4.30;99.90;;;;;;5033910;28;20549;-50
2022/01/19 07:44:09;;;;;;;19.47;10.73;;;4.30;99.90;;;;;;5038204;28;20482;-50
2022/01/19 07:46:36;;;;;;;21.40;10.13;;;4.30;99.90;;;;;;5033002;28;20553;-50
2022/01/19 07:49:03;;;;;;;18.33;10.17;;;4.40;99.90;;;;;;5032037;28;20854;-51
2022/01/19 07:51:29;;;;;;;19.00;10.10;;;4.30;99.90;;;;;;5033953;28;20964;-50
2022/01/19 07:53:56;;;;;;;18.23;9.50;;;4.30;99.90;;;;;;5032605;28;20478;-50
2022/01/19 07:56:24;;;;;;;16.93;10.20;;;4.40;99.90;;;;;;5029205;28;20501;-50
2022/01/19 07:58:50;;;;;;;23.83;10.77;;;4.30;99.90;;;;;;5028579;28;20913;-51
2022/01/19 08:01:18;;;;;;;19.10;9.70;;;4.40;99.90;;;;;;5032940;28;20466;-50
2022/01/19 08:03:45;;;;;;;14.40;9.87;;;4.30;99.90;;;;;;5031484;28;20455;-50
2022/01/19 08:06:12;;;;;;;23.10;10.07;;;4.40;99.90;;;;;;5031828;28;20541;-50
2022/01/19 08:08:38;;;;;;;19.50;9.40;;;4.40;99.90;;;;;;5026961;28;20571;-50
2022/01/19 08:11:05;;;;;;;17.97;10.30;;;4.40;99.90;;;;;;5024212;28;20971;-50
2022/01/19 08:13:33;;;;;;;16.80;8.17;;;4.40;99.90;;;;;;5027836;28;20467;-50
2022/01/19 08:16:00;;;;;;;12.63;8.77;;;4.40;99.90;;;;;;5031281;28;20650;-49
2022/01/19 08:18:26;;;;;;;20.43;7.60;;;4.40;99.80;;;;;;5031002;28;20578;-49
2022/01/19 08:20:53;;;;;;;15.30;7.27;;;4.40;21.20;;;;;;5028911;28;20543;-50
2022/01/19 08:23:19;;;;;;;15.30;8.10;;;4.40;27.40;;;;;;5029745;28;20549;-50
2022/01/19 08:25:46;;;;;;;24.20;7.40;;;4.40;25.50;;;;;;5032911;28;20925;-50
2022/01/19 08:28:12;;;;;;;13.40;6.67;;;4.50;33.70;;;;;;5032385;28;20811;-50
2022/01/19 08:30:40;;;;;;;22.93;9.50;;;4.80;35.60;;;;;;5030527;28;20534;-50
2022/01/19 08:33:07;;;;;;;15.30;7.60;;;5.10;68.50;;;;;;5031586;28;20558;-49
2022/01/19 08:35:33;;;;;;;16.53;8.40;;;5.10;77.30;;;;;;5028618;28;20554;-50
2022/01/19 08:38:00;;;;;;;10.97;7.37;;;5.20;86.40;;;;;;5027897;28;20555;-50
2022/01/19 08:40:29;;;;;;;11.43;6.60;;;5.40;97.70;;;;;;5032443;28;20558;-50
2022/01/19 08:42:55;;;;;;;15.17;7.50;;;5.50;99.90;;;;;;5033150;28;20455;-50
2022/01/19 08:45:23;;;;;;;15.03;7.30;;;5.40;99.90;;;;;;5029803;28;20550;-50
2022/01/19 08:47:51;;;;;;;19.80;7.83;;;5.40;99.90;;;;;;5034559;28;20498;-50
2022/01/19 08:50:18;;;;;;;13.40;7.00;;;5.40;99.90;;;;;;5032893;28;20975;-50
2022/01/19 08:52:46;;;;;;;14.43;7.60;;;5.40;99.90;;;;;;5028380;28;21056;-49
2022/01/19 08:55:13;;;;;;;16.17;7.07;;;5.50;99.90;;;;;;5029560;28;20895;-50
2022/01/19 08:57:40;;;;;;;15.07;7.07;;;5.60;99.90;;;;;;5029262;28;21019;-50
2022/01/19 09:00:10;;;;;;;15.07;7.33;;;5.50;99.90;;;;;;5033051;28;20624;-51
2022/01/19 09:02:36;;;;;;;14.90;7.00;;;5.60;99.90;;;;;;5031413;28;20554;-51
2022/01/19 09:05:06;;;;;;;13.80;6.67;;;5.70;99.90;;;;;;5030543;28;20656;-51
2022/01/19 09:07:33;;;;;;;12.63;6.63;;;5.70;99.90;;;;;;5030419;28;21035;-50
2022/01/19 09:10:00;;;;;;;13.03;6.60;;;5.70;99.90;;;;;;5031411;28;20561;-50
2022/01/19 09:12:27;;;;;;;17.30;7.20;;;5.60;99.90;;;;;;5026262;28;20549;-50
2022/01/19 09:14:53;;;;;;;18.13;8.00;;;5.50;99.90;;;;;;5025091;28;20545;-49
2022/01/19 09:17:20;;;;;;;13.33;7.80;;;5.50;99.90;;;;;;5029351;28;20550;-50
2022/01/19 09:19:46;;;;;;;14.80;7.97;;;5.40;99.90;;;;;;5032379;28;20550;-50
2022/01/19 09:22:14;;;;;;;13.00;6.93;;;5.40;99.90;;;;;;5029776;28;20554;-50
2022/01/19 09:24:43;;;;;;;15.50;8.40;;;5.40;99.90;;;;;;5031311;28;20581;-50
2022/01/19 09:27:10;;;;;;;13.17;7.27;;;5.20;99.90;;;;;;5032055;28;20542;-51
2022/01/19 09:29:38;;;;;;;12.53;6.80;;;5.50;99.90;;;;;;5026383;28;20573;-51
2022/01/19 09:32:07;;;;;;;17.07;7.30;;;5.60;99.90;;;;;;5028816;28;20674;-50
2022/01/19 09:34:34;;;;;;;16.83;7.57;;;5.50;99.90;;;;;;5024027;28;20455;-50
2022/01/19 09:37:01;;;;;;;16.77;7.47;;;5.40;99.90;;;;;;5024164;28;20550;-50
2022/01/19 09:39:29;;;;;;;13.77;7.20;;;5.40;99.90;;;;;;5029938;28;20569;-51
2022/01/19 09:41:56;;;;;;;13.60;6.83;;;5.50;99.90;;;;;;5029406;28;20481;-50
2022/01/19 09:44:25;;;;;;;13.87;7.07;;;5.60;99.90;;;;;;5029962;28;20478;-50
2022/01/19 09:46:52;;;;;;;15.60;7.83;;;5.60;99.90;;;;;;5027391;28;20545;-50
2022/01/19 09:49:20;;;;;;;9.37;6.73;;;5.60;99.90;;;;;;5028982;28;20561;-50
2022/01/19 09:51:49;;;;;;;13.07;6.90;;;5.80;99.90;;;;;;5029621;28;21011;-50
2022/01/19 09:54:17;;;;;;;13.77;6.70;;;5.70;99.90;;;;;;5030496;28;20490;-51
2022/01/19 09:56:46;;;;;;;17.20;8.00;;;5.70;99.90;;;;;;5030920;28;20455;-50
2022/01/19 09:59:14;;;;;;;11.00;7.00;;;5.60;99.90;;;;;;5026612;28;20564;-50
2022/01/19 10:01:50;;;;;;;8.63;6.77;;;5.70;99.90;;;;;;5027742;28;20550;-50
2022/01/19 10:04:18;;;;;;;10.17;6.27;;;5.90;99.90;;;;;;5029670;28;20553;-50
2022/01/19 10:06:44;;;;;;;13.20;6.63;;;6.00;99.90;;;;;;5029208;28;20463;-50
2022/01/19 10:09:11;;;;;;;8.73;6.63;;;6.10;99.90;;;;;;5029999;28;20565;-50
2022/01/19 10:17:10;;;;;;;12.10;6.47;;;6.40;99.90;;;;;;5028330;28;20469;-51
2022/01/19 10:19:38;;;;;;;14.73;6.77;;;6.60;99.90;;;;;;5029468;28;20489;-52
2022/01/19 10:22:13;;;;;;;10.80;6.80;;;7.00;99.90;;;;;;5029383;28;20553;-51
2022/01/19 10:24:50;;;;;;;12.37;6.80;;;7.20;99.90;;;;;;5015930;28;20486;-51
2022/01/19 10:27:28;;;;;;;12.90;7.40;;;6.60;99.90;;;;;;5019712;28;20974;-50
2022/01/19 10:30:11;;;;;;;13.63;7.20;;;6.40;99.90;;;;;;5018933;28;20506;-51
2022/01/19 10:32:40;;;;;;;11.80;6.43;;;6.70;99.90;;;;;;5021700;28;20458;-51
2022/01/19 10:35:15;;;;;;;11.27;6.80;;;6.80;99.90;;;;;;5019339;28;21012;-51
2022/01/19 10:37:42;;;;;;;12.37;6.70;;;6.80;99.90;;;;;;5020403;28;20557;-51
2022/01/19 10:40:15;;;;;;;10.33;5.33;;;6.70;99.90;;;;;;5019682;28;20482;-51
2022/01/19 10:42:41;;;;;;;9.20;6.47;;;6.70;99.90;;;;;;5017801;28;20567;-51
2022/01/19 10:45:11;;;;;;;16.67;6.77;;;6.50;99.90;;;;;;5024942;28;20605;-51
2022/01/19 10:47:47;;;;;;;9.33;6.33;;;6.40;99.90;;;;;;5021673;28;20896;-51
2022/01/19 10:50:15;;;;;;;7.73;5.67;;;6.40;99.90;;;;;;5019301;28;20512;-50
2022/01/19 10:52:44;;;;;;;7.83;6.43;;;6.20;99.90;;;;;;5018582;28;20455;-51
2022/01/19 10:55:13;;;;;;;10.10;6.20;;;5.90;99.90;;;;;;5017005;28;20473;-51
2022/01/19 10:57:41;;;;;;;9.73;7.10;;;5.80;99.90;;;;;;5017347;28;21017;-50
2022/01/19 11:00:19;;;;;;;11.70;7.10;;;5.60;99.90;;;;;;5027589;23;20623;-56
2022/01/19 11:02:46;;;;;;;8.57;6.07;;;5.50;99.90;;;;;;5027070;28;20459;-56
2022/01/19 11:05:14;;;;;;;9.40;7.40;;;5.50;99.90;;;;;;5029379;28;20565;-55
2022/01/19 11:07:41;;;;;;;7.97;6.77;;;5.50;99.90;;;;;;5021884;28;20528;-55
2022/01/19 11:10:12;;;;;;;7.80;7.00;;;5.60;99.90;;;;;;5017771;28;20506;-55
2022/01/19 11:12:45;;;;;;;10.97;7.27;;;5.60;99.90;;;;;;5020314;28;20585;-54
2022/01/19 11:15:12;;;;;;;10.10;7.37;;;5.60;99.90;;;;;;5023906;28;20463;-56
2022/01/19 11:17:40;;;;;;;11.80;7.50;;;5.80;99.90;;;;;;5025109;28;20513;-55
2022/01/19 11:20:11;;;;;;;7.33;6.63;;;6.00;99.90;;;;;;5024982;28;20926;-56
2022/01/19 11:22:50;;;;;;;7.90;7.20;;;6.00;99.90;;;;;;5021539;28;20527;-55
2022/01/19 11:25:25;;;;;;;12.00;7.17;;;5.90;99.90;;;;;;5019617;28;21270;-55
2022/01/19 11:27:52;;;;;;;8.90;7.80;;;5.60;99.90;;;;;;5023679;28;20494;-55
2022/01/19 11:30:22;;;;;;;8.13;6.73;;;5.60;99.90;;;;;;5027371;28;20568;-55
2022/01/19 11:33:24;;;;;;;9.30;6.70;;;5.60;99.90;;;;;;5032624;28;20489;-55
2022/01/19 11:35:53;;;;;;;8.40;7.27;;;5.60;99.90;;;;;;5004006;28;21514;-55
2022/01/19 11:38:36;;;;;;;8.27;7.10;;;5.60;99.90;;;;;;5025349;28;20482;-55
2022/01/19 11:41:25;;;;;;;11.83;7.60;;;5.90;99.90;;;;;;5024690;28;20538;-55
2022/01/19 11:43:55;;;;;;;7.90;6.83;;;5.70;99.90;;;;;;5030314;28;20478;-55
2022/01/19 11:46:31;;;;;;;8.73;6.37;;;5.60;99.90;;;;;;5035791;28;20511;-55
2022/01/19 11:49:00;;;;;;;10.40;6.07;;;5.50;99.90;;;;;;5025340;28;20467;-55
2022/01/19 11:51:29;;;;;;;6.90;6.30;;;5.60;99.90;;;;;;5027174;28;20546;-56
2022/01/19 11:54:01;;;;;;;7.80;7.00;;;5.30;99.90;;;;;;5035752;28;20498;-54
2022/01/19 11:56:28;;;;;;;7.90;7.20;;;5.30;99.90;;;;;;5027360;28;20556;-54
2022/01/19 11:59:08;;;;;;;7.33;6.63;;;5.10;99.90;;;;;;5042449;28;21050;-55
2022/01/19 12:01:36;;;;;;;8.53;7.77;;;5.20;99.90;;;;;;5034225;28;20549;-55
2022/01/19 12:04:16;;;;;;;8.10;6.97;;;5.30;99.90;;;;;;5027046;28;20470;-56
2022/01/19 12:06:43;;;;;;;8.83;7.17;;;5.40;99.90;;;;;;5034962;28;20569;-54
2022/01/19 12:09:13;;;;;;;7.63;6.93;;;5.30;99.90;;;;;;5027903;28;20527;-54
2022/01/19 12:11:42;;;;;;;8.40;7.60;;;5.10;99.90;;;;;;5029331;28;20498;-55
2022/01/19 12:14:13;;;;;;;9.20;8.30;;;5.10;99.90;;;;;;5038276;28;20478;-55
2022/01/19 12:16:53;;;;;;;8.53;7.73;;;5.10;99.90;;;;;;5021860;28;20459;-55
2022/01/19 12:19:28;;;;;;;7.80;7.13;;;4.90;99.90;;;;;;5025533;28;20569;-55
2022/01/19 12:22:05;;;;;;;7.63;6.93;;;5.10;99.90;;;;;;5030336;28;20454;-55
2022/01/19 12:24:33;;;;;;;7.27;6.60;;;5.40;99.90;;;;;;5028798;28;20458;-55
2022/01/19 12:27:04;;;;;;;7.73;6.60;;;5.40;99.90;;;;;;5027968;28;21083;-54
2022/01/19 12:29:45;;;;;;;7.30;6.57;;;5.30;99.90;;;;;;5028892;28;20565;-55
2022/01/19 12:32:41;;;;;;;8.63;7.27;;;5.10;99.90;;;;;;5027823;28;21055;-55
2022/01/19 12:35:15;;;;;;;7.07;6.40;;;4.90;99.90;;;;;;5021859;28;20542;-55
2022/01/19 12:37:45;;;;;;;7.50;6.90;;;4.80;99.90;;;;;;5023451;28;20458;-55
2022/01/19 12:40:35;;;;;;;7.23;6.60;;;4.70;99.90;;;;;;5022316;28;20573;-55
2022/01/19 12:43:04;;;;;;;8.03;7.23;;;4.50;99.90;;;;;;5026277;28;20462;-56
2022/01/19 12:45:33;;;;;;;7.10;6.50;;;4.50;99.90;;;;;;5038992;28;20474;-56
2022/01/19 12:48:03;;;;;;;6.80;6.20;;;4.40;99.90;;;;;;5053768;28;21019;-55
2022/01/19 12:50:43;;;;;;;6.97;6.47;;;4.30;99.90;;;;;;5045704;28;20481;-55
2022/01/19 12:53:22;;;;;;;6.30;5.83;;;4.30;99.90;;;;;;5033822;28;20491;-55
2022/01/19 12:55:52;;;;;;;7.77;7.07;;;4.30;99.90;;;;;;5033893;28;20844;-55
2022/01/19 12:58:23;;;;;;;6.30;5.80;;;4.10;99.90;;;;;;5030179;28;21086;-54
2022/01/19 13:00:53;;;;;;;6.40;5.90;;;4.00;99.90;;;;;;5033158;28;20883;-55
2022/01/19 13:03:24;;;;;;;6.70;6.20;;;3.90;99.90;;;;;;5033613;28;20461;-55
2022/01/19 13:05:55;;;;;;;6.47;6.00;;;3.80;99.90;;;;;;5035858;28;20582;-55
2022/01/19 13:08:47;;;;;;;6.87;6.33;;;3.80;99.90;;;;;;5024994;28;20459;-55
2022/01/19 13:11:28;;;;;;;7.07;6.57;;;3.70;99.90;;;;;;5032725;28;20967;-54
2022/01/19 13:14:00;;;;;;;7.30;6.80;;;3.60;95.90;;;;;;5033827;28;20447;-55
2022/01/19 13:16:39;;;;;;;6.60;6.10;;;3.50;83.00;;;;;;5030981;28;20536;-55
2022/01/19 13:19:09;;;;;;;6.97;6.47;;;3.50;77.90;;;;;;5024118;28;20463;-55
2022/01/19 13:21:37;;;;;;;8.00;7.30;;;3.40;79.70;;;;;;5014047;28;20506;-55
2022/01/19 13:24:09;;;;;;;7.40;6.80;;;3.40;72.70;;;;;;5015396;28;20949;-56
2022/01/19 13:26:41;;;;;;;8.20;7.40;;;3.30;63.90;;;;;;5029387;28;20482;-56
2022/01/19 13:29:23;;;;;;;7.73;7.13;;;3.30;72.80;;;;;;5023225;28;20948;-57
2022/01/19 13:32:01;;;;;;;8.40;7.80;;;3.30;66.60;;;;;;5014030;28;20535;-56
2022/01/19 13:34:29;;;;;;;9.27;7.90;;;3.30;60.90;;;;;;5019845;28;20451;-56
2022/01/19 13:37:00;;;;;;;8.60;7.90;;;3.30;56.80;;;;;;5039854;28;20868;-56
2022/01/19 13:39:28;;;;;;;9.53;8.73;;;3.30;61.10;;;;;;5045232;28;20470;-56
2022/01/19 13:41:57;;;;;;;9.43;8.60;;;3.30;54.40;;;;;;5031888;28;20505;-56
2022/01/19 13:44:30;;;;;;;7.80;7.30;;;3.30;53.40;;;;;;5032267;28;20455;-56
2022/01/19 13:47:10;;;;;;;8.37;7.73;;;3.30;48.40;;;;;;5036817;28;20514;-57
2022/01/19 13:49:38;;;;;;;8.30;7.50;;;3.20;53.50;;;;;;5039386;28;20908;-56
2022/01/19 13:52:07;;;;;;;7.47;6.83;;;3.20;52.60;;;;;;5028446;28;20945;-56
2022/01/19 13:54:38;;;;;;;7.80;7.20;;;3.20;54.70;;;;;;5030655;28;20455;-55
2022/01/19 13:57:05;;;;;;;7.57;6.90;;;3.20;47.80;;;;;;5029952;28;21184;-56
2022/01/19 13:59:32;;;;;;;7.20;6.70;;;3.20;53.40;;;;;;5033491;28;20518;-55
2022/01/19 14:02:01;;;;;;;7.40;6.70;;;3.20;54.20;;;;;;5032183;28;20553;-56
2022/01/19 14:04:30;;;;;;;7.30;6.70;;;3.20;44.60;;;;;;5032174;28;20463;-55